Time;durP1;ratioP1;P1;durP2;ratioP2;P2;SDS_P1;SDS_P2;PMS_P1;PMS_P2;Temp;Humidity;BMP_temperature;BMP_pressure;BME280_temperature;BME280_humidity;BME280_pressure;Samples;Min_cycle;Max_cycle;Signal;HPM_P1;HPM_P2
2022/07/03 00:00:46;;;;;;;1.88;1.50;;;;;;;;;;5051991;28;20060;-66
2022/07/03 00:03:13;;;;;;;4.05;2.58;;;;;;;;;;5052199;28;20049;-65
2022/07/03 00:05:39;;;;;;;3.10;1.70;;;;;;;;;;5052169;28;20052;-66
2022/07/03 00:08:06;;;;;;;1.95;1.73;;;;;;;;;;5052504;28;20055;-65
2022/07/03 00:10:33;;;;;;;2.45;1.90;;;;;;;;;;5051997;28;20044;-68
2022/07/03 00:13:00;;;;;;;2.95;1.67;;;;;;;;;;5050533;28;20135;-66
2022/07/03 00:15:26;;;;;;;3.25;1.50;;;;;;;;;;5051848;28;20056;-65
2022/07/03 00:17:53;;;;;;;7.30;1.88;;;;;;;;;;5051737;28;20040;-66
2022/07/03 00:20:20;;;;;;;3.13;1.80;;;;;;;;;;5052030;28;20056;-66
2022/07/03 00:22:46;;;;;;;2.85;1.70;;;;;;;;;;5051456;28;20049;-66
2022/07/03 00:25:13;;;;;;;18.33;2.22;;;;;;;;;;5050466;28;20060;-65
2022/07/03 00:27:40;;;;;;;2.72;1.80;;;;;;;;;;5051825;28;20049;-65
2022/07/03 00:30:10;;;;;;;2.08;1.83;;;;;;;;;;5051698;28;20056;-66
2022/07/03 00:32:40;;;;;;;2.65;1.85;;;;;;;;;;5051416;28;20060;-66
2022/07/03 00:35:08;;;;;;;7.38;1.88;;;;;;;;;;5051644;28;20073;-65
2022/07/03 00:37:35;;;;;;;2.80;1.90;;;;;;;;;;5051598;28;20397;-67
2022/07/03 00:40:03;;;;;;;2.22;1.70;;;;;;;;;;5051712;28;20056;-66
2022/07/03 00:42:30;;;;;;;3.15;1.65;;;;;;;;;;5033899;28;20107;-65
2022/07/03 00:44:57;;;;;;;3.17;1.80;;;;;;;;;;5051416;28;20053;-66
2022/07/03 00:47:26;;;;;;;2.42;1.70;;;;;;;;;;5051795;28;20067;-67
2022/07/03 00:49:57;;;;;;;3.75;1.80;;;;;;;;;;5051633;28;20049;-66
2022/07/03 00:52:23;;;;;;;2.03;1.90;;;;;;;;;;5051540;28;20663;-66
2022/07/03 00:54:53;;;;;;;2.80;1.92;;;;;;;;;;5051367;28;20416;-65
2022/07/03 00:57:20;;;;;;;3.30;1.92;;;;;;;;;;5051717;28;20411;-67
2022/07/03 00:59:47;;;;;;;3.25;1.85;;;;;;;;;;5051715;28;20128;-65
2022/07/03 01:02:32;;;;;;;3.13;1.50;;;;;;;;;;5051415;28;20045;-65
2022/07/03 01:05:23;;;;;;;2.55;1.90;;;;;;;;;;5051432;28;20531;-66
2022/07/03 01:08:15;;;;;;;5.18;1.77;;;;;;;;;;5051538;28;20053;-66
2022/07/03 01:10:54;;;;;;;2.25;2.08;;;;;;;;;;5034557;28;20053;-66
2022/07/03 01:13:32;;;;;;;3.22;2.15;;;;;;;;;;5050239;28;20060;-66
2022/07/03 01:16:10;;;;;;;2.97;1.42;;;;;;;;;;5049998;28;20075;-66
2022/07/03 01:18:39;;;;;;;1.77;1.67;;;;;;;;;;5051620;28;20102;-66
2022/07/03 01:21:29;;;;;;;2.22;2.03;;;;;;;;;;5051039;28;20147;-66
2022/07/03 01:24:15;;;;;;;3.05;1.95;;;;;;;;;;5040108;28;20082;-66
2022/07/03 01:26:41;;;;;;;2.38;1.80;;;;;;;;;;5051446;28;20049;-66
2022/07/03 01:29:09;;;;;;;2.22;1.90;;;;;;;;;;5050232;28;20049;-66
2022/07/03 01:31:37;;;;;;;2.05;1.90;;;;;;;;;;5051337;28;20511;-66
2022/07/03 01:34:04;;;;;;;3.17;2.13;;;;;;;;;;5033747;28;20053;-66
2022/07/03 01:36:30;;;;;;;5.50;2.45;;;;;;;;;;5037139;28;20052;-65
2022/07/03 01:38:58;;;;;;;3.17;2.85;;;;;;;;;;5037119;28;20060;-66
2022/07/03 01:41:24;;;;;;;7.32;2.78;;;;;;;;;;5037101;28;20056;-66
2022/07/03 01:43:56;;;;;;;5.18;3.40;;;;;;;;;;5037491;28;20064;-65
2022/07/03 01:46:28;;;;;;;3.72;3.10;;;;;;;;;;5054440;28;20049;-65
2022/07/03 01:48:55;;;;;;;6.47;3.10;;;;;;;;;;5054596;28;20495;-66
2022/07/03 01:51:23;;;;;;;5.85;3.88;;;;;;;;;;5054366;28;20056;-65
2022/07/03 01:53:50;;;;;;;4.90;3.67;;;;;;;;;;5054444;28;20057;-65
2022/07/03 01:56:19;;;;;;;5.10;3.92;;;;;;;;;;5054559;28;20440;-65
2022/07/03 01:58:47;;;;;;;4.80;3.33;;;;;;;;;;5054471;28;20461;-65
2022/07/03 02:01:30;;;;;;;3.22;2.47;;;;;;;;;;5054129;28;20049;-65
2022/07/03 02:03:56;;;;;;;2.97;2.63;;;;;;;;;;5054283;28;20570;-66
2022/07/03 02:06:39;;;;;;;3.20;2.55;;;;;;;;;;5054461;28;20049;-65
2022/07/03 02:09:07;;;;;;;;;;;;;;;;;;5053695;28;20079;-65
2022/07/03 02:11:54;;;;;;;3.20;2.25;;;;;;;;;;5054023;28;19942;-66
2022/07/03 02:14:29;;;;;;;4.22;2.55;;;;;;;;;;5052790;28;20055;-65
2022/07/03 02:17:18;;;;;;;4.68;2.33;;;;;;;;;;5037123;28;20056;-66
2022/07/03 02:19:56;;;;;;;3.60;2.53;;;;;;;;;;5054319;28;20057;-65
2022/07/03 02:22:31;;;;;;;4.05;2.25;;;;;;;;;;5052575;28;20427;-66
2022/07/03 02:25:09;;;;;;;3.13;1.92;;;;;;;;;;5054142;28;20048;-66
2022/07/03 02:27:54;;;;;;;3.90;2.67;;;;;;;;;;5053898;28;20488;-66
2022/07/03 02:30:22;;;;;;;2.90;2.60;;;;;;;;;;5053805;28;20056;-66
2022/07/03 02:32:50;;;;;;;2.88;2.58;;;;;;;;;;5052572;28;20056;-65
2022/07/03 02:35:22;;;;;;;2.47;2.28;;;;;;;;;;5053721;28;20478;-65
2022/07/03 02:37:53;;;;;;;2.85;2.63;;;;;;;;;;5052890;28;20122;-65
2022/07/03 02:40:26;;;;;;;3.17;2.28;;;;;;;;;;5036547;28;20052;-65
2022/07/03 02:42:58;;;;;;;;;;;;;;;;;;5036772;28;20067;-65
2022/07/03 02:45:25;;;;;;;2.92;2.60;;;;;;;;;;5051921;28;19974;-65
2022/07/03 02:48:01;;;;;;;2.80;2.53;;;;;;;;;;5036061;28;20053;-65
2022/07/03 02:50:28;;;;;;;2.47;2.08;;;;;;;;;;5036390;28;20057;-65
2022/07/03 02:53:05;;;;;;;4.18;2.75;;;;;;;;;;5051993;28;20049;-65
2022/07/03 02:55:48;;;;;;;5.20;2.15;;;;;;;;;;5053361;28;20052;-65
2022/07/03 02:58:37;;;;;;;2.50;2.30;;;;;;;;;;5053532;28;20106;-66
2022/07/03 03:01:07;;;;;;;4.50;2.33;;;;;;;;;;5053217;28;20049;-65
2022/07/03 03:03:35;;;;;;;3.53;2.10;;;;;;;;;;5051963;28;20045;-66
2022/07/03 03:06:18;;;;;;;2.20;2.00;;;;;;;;;;5053210;28;20492;-65
2022/07/03 03:08:55;;;;;;;3.03;2.72;;;;;;;;;;5036870;28;20522;-65
2022/07/03 03:11:27;;;;;;;3.53;2.20;;;;;;;;;;5035851;28;20489;-65
2022/07/03 03:13:56;;;;;;;3.55;2.25;;;;;;;;;;5051646;28;20055;-66
2022/07/03 03:16:23;;;;;;;8.55;2.08;;;;;;;;;;5052956;28;20057;-65
2022/07/03 03:18:49;;;;;;;3.03;2.40;;;;;;;;;;5052815;28;20135;-65
2022/07/03 03:21:17;;;;;;;3.63;2.35;;;;;;;;;;5052734;28;20106;-66
2022/07/03 03:23:48;;;;;;;3.67;2.15;;;;;;;;;;5052963;28;20053;-65
2022/07/03 03:26:23;;;;;;;2.03;1.90;;;;;;;;;;5052873;28;20467;-65
2022/07/03 03:28:51;;;;;;;2.72;2.20;;;;;;;;;;5052867;28;20408;-66
2022/07/03 03:31:18;;;;;;;3.45;2.00;;;;;;;;;;5052387;28;20059;-65
2022/07/03 03:33:48;;;;;;;4.32;2.65;;;;;;;;;;5052774;28;20077;-66
2022/07/03 03:36:17;;;;;;;6.85;2.30;;;;;;;;;;5052641;28;20072;-66
2022/07/03 03:38:44;;;;;;;3.15;2.42;;;;;;;;;;5052501;28;20045;-66
2022/07/03 03:41:11;;;;;;;2.67;2.33;;;;;;;;;;5052336;28;20569;-65
2022/07/03 03:43:43;;;;;;;2.35;2.10;;;;;;;;;;5052326;28;20048;-65
2022/07/03 03:46:09;;;;;;;2.75;2.20;;;;;;;;;;5052695;28;20451;-65
2022/07/03 03:48:36;;;;;;;3.38;2.00;;;;;;;;;;5052539;28;20094;-66
2022/07/03 03:51:04;;;;;;;2.50;2.30;;;;;;;;;;5051094;28;20080;-65
2022/07/03 03:53:31;;;;;;;2.67;2.47;;;;;;;;;;5052345;28;20102;-66
2022/07/03 03:56:01;;;;;;;3.35;2.13;;;;;;;;;;5052221;28;20516;-65
2022/07/03 03:58:29;;;;;;;4.18;1.90;;;;;;;;;;5051976;28;20045;-65
2022/07/03 04:01:00;;;;;;;5.15;2.28;;;;;;;;;;5052184;28;20463;-66
2022/07/03 04:03:27;;;;;;;3.80;2.10;;;;;;;;;;5052234;28;20053;-66
2022/07/03 04:05:54;;;;;;;3.60;2.00;;;;;;;;;;5052166;28;20455;-67
2022/07/03 04:08:21;;;;;;;2.72;2.28;;;;;;;;;;5052125;28;20460;-66
2022/07/03 04:10:48;;;;;;;2.45;2.08;;;;;;;;;;5051908;28;20063;-66
2022/07/03 04:13:15;;;;;;;3.78;2.30;;;;;;;;;;5051880;28;20495;-66
2022/07/03 04:15:42;;;;;;;4.75;2.10;;;;;;;;;;5052153;28;20424;-66
2022/07/03 04:18:09;;;;;;;2.22;2.10;;;;;;;;;;5051722;28;20562;-66
2022/07/03 04:20:36;;;;;;;3.83;1.90;;;;;;;;;;5051903;28;20053;-65
2022/07/03 04:23:02;;;;;;;2.67;2.35;;;;;;;;;;5051741;28;20466;-65
2022/07/03 04:25:29;;;;;;;3.42;2.50;;;;;;;;;;5051710;28;20049;-65
2022/07/03 04:27:56;;;;;;;3.05;2.13;;;;;;;;;;5051644;28;20049;-65
2022/07/03 04:30:43;;;;;;;2.30;1.92;;;;;;;;;;5051898;28;20118;-66
2022/07/03 04:33:09;;;;;;;2.40;2.17;;;;;;;;;;5051735;28;20099;-65
2022/07/03 04:35:38;;;;;;;3.00;1.98;;;;;;;;;;5051670;28;20510;-65
2022/07/03 04:38:04;;;;;;;2.90;2.53;;;;;;;;;;5051465;28;20083;-65
2022/07/03 04:40:31;;;;;;;2.80;1.95;;;;;;;;;;5050457;28;20057;-66
2022/07/03 04:42:58;;;;;;;2.72;2.30;;;;;;;;;;5051497;28;20057;-65
2022/07/03 04:45:24;;;;;;;2.53;1.80;;;;;;;;;;5051552;28;20049;-65
2022/07/03 04:47:51;;;;;;;2.30;2.10;;;;;;;;;;5051677;28;20049;-65
2022/07/03 04:50:18;;;;;;;2.20;1.98;;;;;;;;;;5051540;28;20459;-66
2022/07/03 04:52:44;;;;;;;3.03;1.92;;;;;;;;;;5051287;28;20048;-65
2022/07/03 04:55:12;;;;;;;3.33;1.90;;;;;;;;;;5051556;28;20061;-65
2022/07/03 04:57:39;;;;;;;4.63;2.50;;;;;;;;;;5051556;28;20049;-65
2022/07/03 05:00:06;;;;;;;2.22;2.00;;;;;;;;;;5051497;28;20048;-66
2022/07/03 05:02:33;;;;;;;3.85;2.00;;;;;;;;;;5051348;28;20052;-65
2022/07/03 05:05:00;;;;;;;2.53;1.80;;;;;;;;;;5051288;28;20586;-66
2022/07/03 05:07:26;;;;;;;3.15;1.80;;;;;;;;;;5051679;28;20056;-66
2022/07/03 05:09:53;;;;;;;2.30;2.08;;;;;;;;;;5053669;28;20053;-66
2022/07/03 05:12:20;;;;;;;2.30;2.10;;;;;;;;;;5055373;28;20106;-65
2022/07/03 05:14:46;;;;;;;4.57;2.25;;;;;;;;;;5055139;28;20424;-65
2022/07/03 05:17:13;;;;;;;3.63;2.05;;;;;;;;;;5055231;28;20049;-65
2022/07/03 05:19:40;;;;;;;3.22;2.28;;;;;;;;;;5055008;28;20056;-65
2022/07/03 05:22:07;;;;;;;2.85;2.65;;;;;;;;;;5055020;28;20068;-65
2022/07/03 05:24:33;;;;;;;1.92;1.73;;;;;;;;;;5055190;28;20053;-65
2022/07/03 05:27:00;;;;;;;5.25;2.35;;;;;;;;;;5054988;28;20053;-65
2022/07/03 05:29:27;;;;;;;2.22;1.98;;;;;;;;;;5055080;28;20075;-65
2022/07/03 05:31:53;;;;;;;2.28;2.08;;;;;;;;;;5054821;28;20049;-65
2022/07/03 05:34:20;;;;;;;2.65;2.17;;;;;;;;;;5054815;28;20559;-66
2022/07/03 05:36:46;;;;;;;3.85;2.00;;;;;;;;;;5055884;28;20055;-65
2022/07/03 05:39:31;;;;;;;2.42;1.80;;;;;;;;;;5056424;28;20041;-66
2022/07/03 05:41:58;;;;;;;2.55;2.30;;;;;;;;;;5054672;28;20052;-66
2022/07/03 05:44:24;;;;;;;2.30;1.90;;;;;;;;;;5054530;28;20053;-66
2022/07/03 05:46:51;;;;;;;2.75;1.58;;;;;;;;;;5054707;28;20053;-66
2022/07/03 05:49:18;;;;;;;3.22;1.63;;;;;;;;;;5054954;28;20048;-66
2022/07/03 05:51:44;;;;;;;1.88;1.77;;;;;;;;;;5054628;28;20053;-66
2022/07/03 05:54:11;;;;;;;1.90;1.65;;;;;;;;;;5054489;28;20086;-66
2022/07/03 05:56:38;;;;;;;5.00;1.80;;;;;;;;;;5054480;28;20052;-66
2022/07/03 05:59:04;;;;;;;2.00;1.60;;;;;;;;;;5054602;28;20049;-66
2022/07/03 06:01:31;;;;;;;2.55;1.55;;;;;;;;;;5054344;28;20569;-66
2022/07/03 06:03:58;;;;;;;1.83;1.50;;;;;;;;;;5054593;28;20044;-66
2022/07/03 06:06:25;;;;;;;2.17;1.73;;;;;;;;;;5054195;28;20049;-67
2022/07/03 06:08:51;;;;;;;2.08;1.65;;;;;;;;;;5054585;28;20466;-66
2022/07/03 06:11:18;;;;;;;1.50;1.40;;;;;;;;;;5054117;28;20063;-66
2022/07/03 06:13:45;;;;;;;2.85;1.60;;;;;;;;;;5054203;28;20059;-66
2022/07/03 06:16:11;;;;;;;1.38;1.27;;;;;;;;;;5054291;28;20057;-66
2022/07/03 06:18:38;;;;;;;3.60;1.70;;;;;;;;;;5054179;28;20053;-66
2022/07/03 06:21:04;;;;;;;1.60;1.48;;;;;;;;;;5053414;28;20045;-66
2022/07/03 06:23:31;;;;;;;1.90;1.58;;;;;;;;;;5054036;28;20591;-66
2022/07/03 06:26:14;;;;;;;2.50;1.40;;;;;;;;;;5053913;28;20052;-66
2022/07/03 06:28:41;;;;;;;1.50;1.15;;;;;;;;;;5054208;28;20079;-66
2022/07/03 06:31:08;;;;;;;1.77;1.40;;;;;;;;;;5053937;28;20518;-66
2022/07/03 06:33:35;;;;;;;1.38;1.20;;;;;;;;;;5053951;28;20053;-66
2022/07/03 06:36:02;;;;;;;1.55;1.45;;;;;;;;;;5053872;28;20450;-66
2022/07/03 06:38:29;;;;;;;1.60;1.48;;;;;;;;;;5053642;28;20078;-66
2022/07/03 06:40:55;;;;;;;2.22;1.60;;;;;;;;;;5053464;28;20106;-66
2022/07/03 06:43:22;;;;;;;2.17;1.52;;;;;;;;;;5053797;28;20053;-66
2022/07/03 06:45:49;;;;;;;4.65;1.50;;;;;;;;;;5053589;28;20102;-67
2022/07/03 06:48:16;;;;;;;1.92;1.38;;;;;;;;;;5053681;28;20052;-66
2022/07/03 06:50:42;;;;;;;2.30;1.15;;;;;;;;;;5053438;28;20049;-66
2022/07/03 06:53:09;;;;;;;1.58;1.48;;;;;;;;;;5053587;28;20202;-66
2022/07/03 06:55:35;;;;;;;1.30;1.20;;;;;;;;;;5053324;28;20060;-66
2022/07/03 06:58:02;;;;;;;1.30;1.20;;;;;;;;;;5053467;28;20064;-66
2022/07/03 07:00:29;;;;;;;1.20;1.10;;;;;;;;;;5053403;28;20049;-66
2022/07/03 07:02:55;;;;;;;2.92;1.30;;;;;;;;;;5053630;28;20045;-66
2022/07/03 07:05:25;;;;;;;2.22;1.30;;;;;;;;;;5053249;28;20080;-66
2022/07/03 07:07:52;;;;;;;1.80;1.42;;;;;;;;;;5053170;28;20049;-66
2022/07/03 07:10:19;;;;;;;1.75;1.50;;;;;;;;;;5053333;28;20045;-67
2022/07/03 07:12:45;;;;;;;2.17;1.10;;;;;;;;;;5053158;28;20048;-66
2022/07/03 07:15:12;;;;;;;1.95;1.50;;;;;;;;;;5053234;28;20053;-67
2022/07/03 07:17:39;;;;;;;1.27;1.20;;;;;;;;;;5053001;28;20408;-67
2022/07/03 07:20:06;;;;;;;3.55;1.20;;;;;;;;;;5052866;28;20049;-66
2022/07/03 07:22:32;;;;;;;4.18;1.23;;;;;;;;;;5052660;28;20056;-67
2022/07/03 07:24:59;;;;;;;4.03;1.05;;;;;;;;;;5053251;28;20056;-67
2022/07/03 07:27:25;;;;;;;3.00;1.83;;;;;;;;;;5052806;28;20079;-67
2022/07/03 07:29:52;;;;;;;1.80;1.42;;;;;;;;;;5052961;28;20056;-67
2022/07/03 07:32:19;;;;;;;1.80;1.52;;;;;;;;;;5051784;28;20053;-66
2022/07/03 07:34:45;;;;;;;1.65;1.40;;;;;;;;;;5052603;28;20076;-65
2022/07/03 07:37:12;;;;;;;2.58;1.20;;;;;;;;;;5052545;28;20049;-65
2022/07/03 07:39:39;;;;;;;1.30;1.20;;;;;;;;;;5053001;28;20051;-65
2022/07/03 07:42:05;;;;;;;1.35;1.10;;;;;;;;;;5052487;28;20060;-65
2022/07/03 07:44:32;;;;;;;1.67;1.58;;;;;;;;;;5053191;28;20064;-65
2022/07/03 07:46:59;;;;;;;1.20;1.10;;;;;;;;;;5052619;28;20056;-66
2022/07/03 07:49:25;;;;;;;2.20;1.30;;;;;;;;;;5052279;28;20443;-65
2022/07/03 07:51:52;;;;;;;2.78;1.15;;;;;;;;;;5052148;28;20049;-66
2022/07/03 07:54:18;;;;;;;2.45;0.90;;;;;;;;;;5052309;28;20048;-67
2022/07/03 07:56:45;;;;;;;1.20;1.10;;;;;;;;;;5052315;28;20052;-66
2022/07/03 07:59:12;;;;;;;2.15;1.10;;;;;;;;;;5052540;28;20045;-66
2022/07/03 08:07:08;;;;;;;1.10;0.95;;;;;;;;;;5052023;28;20049;-66
2022/07/03 08:09:35;;;;;;;1.40;1.10;;;;;;;;;;5051978;28;20127;-65
2022/07/03 08:12:02;;;;;;;1.17;0.90;;;;;;;;;;5051980;28;20057;-67
2022/07/03 08:14:28;;;;;;;1.60;1.00;;;;;;;;;;5051749;28;20052;-66
2022/07/03 08:16:55;;;;;;;0.82;0.82;;;;;;;;;;5052362;28;20076;-72
2022/07/03 12:18:40;;;;;;;0.70;0.70;;;;;;;;;;6058072;23;20038;31
2022/07/03 12:21:07;;;;;;;0.98;0.77;;;;;;;;;;4909477;29;20424;-70
2022/07/03 12:23:47;;;;;;;4.00;1.10;;;;;;;;;;4895229;29;20052;-69
2022/07/03 12:26:14;;;;;;;1.45;0.60;;;;;;;;;;4896293;29;20066;-69
2022/07/03 12:28:41;;;;;;;0.50;0.50;;;;;;;;;;4894397;29;20052;-69
2022/07/03 12:31:08;;;;;;;0.70;0.70;;;;;;;;;;4895624;29;20052;-69
2022/07/03 12:33:35;;;;;;;1.42;0.50;;;;;;;;;;4897359;29;20056;-69
2022/07/03 12:36:06;;;;;;;0.75;0.50;;;;;;;;;;4895767;29;20063;-69
2022/07/03 12:38:33;;;;;;;1.65;0.60;;;;;;;;;;4896910;29;20060;-68
2022/07/03 12:41:05;;;;;;;0.52;0.52;;;;;;;;;;4896777;29;20059;-69
2022/07/03 12:43:41;;;;;;;1.10;0.50;;;;;;;;;;4896891;29;20422;-69
2022/07/03 12:46:23;;;;;;;0.57;0.50;;;;;;;;;;4896939;29;20502;-69
2022/07/03 12:48:55;;;;;;;1.55;0.82;;;;;;;;;;4896508;29;20061;-68
2022/07/03 12:51:38;;;;;;;;;;;;;;;;;;4897531;29;20056;-68
2022/07/03 12:54:34;;;;;;;3.03;1.00;;;;;;;;;;4896910;29;19923;-68
2022/07/03 13:00:09;;;;;;;0.68;0.57;;;;;;;;;;4913986;29;20080;-69
2022/07/03 13:02:40;;;;;;;0.90;0.90;;;;;;;;;;4896919;29;20429;-69
2022/07/03 13:05:23;;;;;;;0.93;0.60;;;;;;;;;;4896695;29;20056;-69
2022/07/03 13:07:54;;;;;;;3.47;1.00;;;;;;;;;;4896817;29;20135;-69
2022/07/03 13:10:23;;;;;;;0.93;0.60;;;;;;;;;;4896940;29;20048;-69
2022/07/03 13:12:53;;;;;;;1.65;0.60;;;;;;;;;;4896649;29;20561;-69
2022/07/03 13:15:20;;;;;;;0.70;0.50;;;;;;;;;;4896737;29;20061;-72
2022/07/03 13:17:53;;;;;;;1.95;0.50;;;;;;;;;;4896339;29;20053;-66
2022/07/03 13:20:31;;;;;;;1.50;0.50;;;;;;;;;;4883535;29;20577;-67
2022/07/03 13:23:03;;;;;;;2.40;0.50;;;;;;;;;;4887777;29;20526;-66
2022/07/03 13:25:31;;;;;;;1.25;0.60;;;;;;;;;;4883600;29;20057;-65
2022/07/03 13:28:11;;;;;;;1.05;0.60;;;;;;;;;;4885533;29;20044;-66
2022/07/03 13:30:39;;;;;;;1.50;0.70;;;;;;;;;;4885366;29;20053;-67
2022/07/03 13:33:07;;;;;;;1.60;0.60;;;;;;;;;;4885740;29;20488;-67
2022/07/03 13:35:34;;;;;;;0.93;0.68;;;;;;;;;;4888229;29;20053;-67
2022/07/03 13:38:01;;;;;;;1.42;0.60;;;;;;;;;;4888418;29;20048;-67
2022/07/03 13:40:28;;;;;;;1.85;0.80;;;;;;;;;;4893147;29;20053;-66
2022/07/03 13:42:55;;;;;;;0.85;0.70;;;;;;;;;;4885844;29;20064;-67
2022/07/03 13:45:21;;;;;;;0.85;0.75;;;;;;;;;;4887507;29;20057;-66
2022/07/03 13:47:48;;;;;;;0.80;0.60;;;;;;;;;;4887721;29;20049;-67
2022/07/03 13:50:15;;;;;;;0.95;0.70;;;;;;;;;;4892016;29;20045;-66
2022/07/03 13:52:42;;;;;;;1.58;0.68;;;;;;;;;;4889325;29;20056;-67
2022/07/03 13:55:16;;;;;;;0.75;0.52;;;;;;;;;;4885307;29;20053;-66
2022/07/03 13:57:42;;;;;;;2.40;0.65;;;;;;;;;;4886683;29;20502;-66
2022/07/03 14:00:10;;;;;;;1.10;0.47;;;;;;;;;;4885407;29;20065;-67
2022/07/03 14:02:39;;;;;;;0.80;0.50;;;;;;;;;;4887724;29;20493;-67
2022/07/03 14:05:06;;;;;;;0.88;0.60;;;;;;;;;;4887545;29;20060;-68
2022/07/03 14:07:33;;;;;;;0.30;0.30;;;;;;;;;;4885323;29;20091;-67
2022/07/03 14:10:00;;;;;;;0.80;0.50;;;;;;;;;;4885294;29;20056;-67
2022/07/03 14:12:26;;;;;;;2.28;0.63;;;;;;;;;;4889675;29;20061;-67
2022/07/03 14:14:53;;;;;;;0.70;0.57;;;;;;;;;;4894709;29;20527;-67
2022/07/03 14:17:20;;;;;;;0.70;0.68;;;;;;;;;;4892943;29;20521;-70
2022/07/03 14:19:46;;;;;;;0.65;0.57;;;;;;;;;;4893695;29;20048;-69
2022/07/03 14:22:13;;;;;;;0.40;0.40;;;;;;;;;;4891193;29;20051;-66
2022/07/03 14:24:40;;;;;;;0.60;0.60;;;;;;;;;;4888352;29;20084;-66
2022/07/03 14:32:37;;;;;;;0.75;0.45;;;;;;;;;;4887011;29;20045;-65
2022/07/03 14:35:04;;;;;;;1.08;0.52;;;;;;;;;;4893150;29;20692;-65
2022/07/03 14:37:32;;;;;;;3.22;0.60;;;;;;;;;;4886730;29;20064;-68
2022/07/03 14:39:58;;;;;;;0.60;0.60;;;;;;;;;;4887532;29;20068;-68
2022/07/03 14:42:25;;;;;;;1.95;1.15;;;;;;;;;;4890862;29;20091;-67
2022/07/03 14:44:52;;;;;;;0.65;0.55;;;;;;;;;;4887151;29;20551;-63
2022/07/03 14:47:18;;;;;;;1.70;0.70;;;;;;;;;;4887979;29;20408;-66
2022/07/03 14:49:45;;;;;;;1.05;0.60;;;;;;;;;;4884892;29;20053;-67
2022/07/03 14:52:12;;;;;;;0.70;0.60;;;;;;;;;;4885800;29;20550;-67
2022/07/03 14:54:40;;;;;;;0.60;0.60;;;;;;;;;;4885665;29;20060;-66
2022/07/03 14:57:34;;;;;;;2.17;0.70;;;;;;;;;;4903037;29;20049;-66
2022/07/03 15:00:10;;;;;;;1.25;0.70;;;;;;;;;;4887065;29;20053;-65
2022/07/03 15:03:08;;;;;;;0.50;0.50;;;;;;;;;;4886367;29;20053;-65
2022/07/03 15:05:44;;;;;;;1.00;0.60;;;;;;;;;;4892933;29;20052;-65
2022/07/03 15:08:27;;;;;;;1.30;0.85;;;;;;;;;;4892682;29;20143;-65
2022/07/03 15:10:54;;;;;;;1.25;0.68;;;;;;;;;;4885619;29;20189;-65
2022/07/03 15:13:21;;;;;;;1.48;0.70;;;;;;;;;;4889502;29;20044;-65
2022/07/03 15:15:49;;;;;;;0.70;0.70;;;;;;;;;;4877670;29;20053;-66
2022/07/03 15:18:20;;;;;;;5.15;0.68;;;;;;;;;;4887112;29;20430;-66
2022/07/03 15:20:47;;;;;;;1.70;0.70;;;;;;;;;;4885364;29;20045;-66
2022/07/03 15:23:14;;;;;;;0.80;0.70;;;;;;;;;;4895325;29;20055;-66
2022/07/03 15:25:41;;;;;;;1.30;0.60;;;;;;;;;;4893437;29;20427;-66
2022/07/03 15:28:09;;;;;;;2.00;0.65;;;;;;;;;;4865037;29;20142;-66
2022/07/03 15:30:36;;;;;;;0.47;0.47;;;;;;;;;;4888384;29;20048;-66
2022/07/03 15:33:03;;;;;;;3.00;0.98;;;;;;;;;;4882683;29;20053;-65
2022/07/03 15:35:30;;;;;;;1.70;0.63;;;;;;;;;;4885430;29;20056;-66
2022/07/03 15:38:13;;;;;;;1.42;0.60;;;;;;;;;;4884009;29;20059;-65
2022/07/03 15:40:50;;;;;;;1.33;0.70;;;;;;;;;;4886711;29;20049;-66
2022/07/03 15:43:34;;;;;;;2.25;1.50;;;;;;;;;;4887373;29;20056;-66
2022/07/03 15:46:13;;;;;;;2.45;0.60;;;;;;;;;;4885380;29;20053;-66
2022/07/03 15:48:49;;;;;;;2.55;0.80;;;;;;;;;;4883918;29;20056;-66
2022/07/03 15:51:25;;;;;;;2.97;0.52;;;;;;;;;;4883097;29;20045;-66
2022/07/03 15:54:01;;;;;;;0.90;0.70;;;;;;;;;;4884471;29;20044;-66
2022/07/03 15:56:34;;;;;;;3.55;0.73;;;;;;;;;;4889452;29;20064;-66
2022/07/03 15:59:05;;;;;;;1.88;0.55;;;;;;;;;;4886193;29;20087;-66
2022/07/03 16:02:13;;;;;;;1.10;0.83;;;;;;;;;;4885630;29;20059;-65
2022/07/03 16:04:43;;;;;;;2.13;0.60;;;;;;;;;;4898438;29;20053;-66
2022/07/03 16:07:10;;;;;;;1.67;0.63;;;;;;;;;;4884203;29;20087;-65
2022/07/03 16:09:36;;;;;;;1.27;0.70;;;;;;;;;;4901648;29;20052;-66
2022/07/03 16:12:03;;;;;;;1.92;0.40;;;;;;;;;;4884619;29;20048;-65
2022/07/03 16:14:34;;;;;;;0.75;0.47;;;;;;;;;;4894091;29;20056;-65
2022/07/03 16:17:04;;;;;;;0.73;0.43;;;;;;;;;;4885184;29;20049;-65
2022/07/03 16:19:31;;;;;;;1.35;1.00;;;;;;;;;;4897158;29;20126;-65
2022/07/03 16:22:00;;;;;;;2.13;0.60;;;;;;;;;;4899825;29;20095;-65
2022/07/03 16:24:33;;;;;;;0.80;0.80;;;;;;;;;;4882510;29;21493;-66
2022/07/03 16:27:00;;;;;;;2.78;0.60;;;;;;;;;;4889085;29;20044;-65
2022/07/03 16:29:27;;;;;;;2.30;0.68;;;;;;;;;;4890979;29;20053;-66
2022/07/03 16:31:53;;;;;;;0.60;0.47;;;;;;;;;;4882026;29;20132;-66
2022/07/03 16:34:48;;;;;;;0.60;0.50;;;;;;;;;;4876066;29;20108;-63
2022/07/03 16:37:15;;;;;;;1.15;0.60;;;;;;;;;;4885164;29;20048;-65
2022/07/03 16:39:42;;;;;;;1.48;0.60;;;;;;;;;;4876982;29;20512;-66
2022/07/03 16:42:11;;;;;;;0.80;0.60;;;;;;;;;;4883606;29;20149;-65
2022/07/03 16:44:40;;;;;;;1.83;0.93;;;;;;;;;;4881264;29;20059;-65
2022/07/03 16:47:07;;;;;;;1.38;0.75;;;;;;;;;;4899857;29;20048;-65
2022/07/03 16:49:35;;;;;;;2.00;0.90;;;;;;;;;;4880850;29;20075;-65
2022/07/03 16:52:07;;;;;;;1.27;0.60;;;;;;;;;;4882926;29;20139;-65
2022/07/03 16:54:35;;;;;;;2.10;0.60;;;;;;;;;;4882384;29;20484;-65
2022/07/03 16:57:05;;;;;;;2.28;1.02;;;;;;;;;;4884270;29;20060;-66
2022/07/03 16:59:32;;;;;;;0.95;0.68;;;;;;;;;;4884933;29;20073;-66
2022/07/03 17:01:59;;;;;;;1.48;1.08;;;;;;;;;;4880504;29;20136;-66
2022/07/03 17:04:32;;;;;;;0.70;0.68;;;;;;;;;;4883485;29;20064;-67
2022/07/03 17:06:59;;;;;;;0.68;0.65;;;;;;;;;;4893570;29;20057;-67
2022/07/03 17:09:25;;;;;;;0.93;0.82;;;;;;;;;;4887669;29;20171;-67
2022/07/03 17:11:52;;;;;;;1.05;0.57;;;;;;;;;;4893709;29;20061;-66
2022/07/03 17:14:19;;;;;;;2.58;1.13;;;;;;;;;;4888342;29;20109;-65
2022/07/03 17:16:49;;;;;;;1.17;0.70;;;;;;;;;;4889907;29;20075;-66
2022/07/03 17:19:20;;;;;;;1.40;0.73;;;;;;;;;;4891167;29;20053;-65
2022/07/03 17:21:47;;;;;;;4.25;0.73;;;;;;;;;;4878488;29;20064;-66
2022/07/03 17:24:30;;;;;;;1.60;0.63;;;;;;;;;;4893564;29;20571;-66
2022/07/03 17:27:02;;;;;;;2.42;0.93;;;;;;;;;;4884777;29;20048;-66
2022/07/03 17:29:46;;;;;;;1.65;1.00;;;;;;;;;;4894249;29;20052;-66
2022/07/03 17:32:14;;;;;;;0.98;0.55;;;;;;;;;;4897384;29;20393;-66
2022/07/03 17:34:42;;;;;;;2.80;0.75;;;;;;;;;;4887765;29;20060;-66
2022/07/03 17:37:09;;;;;;;1.10;0.70;;;;;;;;;;4886370;29;20551;-65
2022/07/03 17:39:35;;;;;;;1.85;0.60;;;;;;;;;;4898368;29;20068;-66
2022/07/03 17:42:02;;;;;;;2.50;0.60;;;;;;;;;;4884372;29;20055;-65
2022/07/03 17:44:29;;;;;;;1.80;0.82;;;;;;;;;;4884023;29;20052;-66
2022/07/03 17:47:01;;;;;;;3.80;0.80;;;;;;;;;;4889870;29;20497;-65
2022/07/03 17:49:28;;;;;;;1.13;0.68;;;;;;;;;;4894253;29;20055;-65
2022/07/03 17:51:58;;;;;;;2.05;0.73;;;;;;;;;;4887042;29;20049;-74
2022/07/03 17:54:25;;;;;;;3.10;0.80;;;;;;;;;;4911162;29;20060;-72
2022/07/03 17:56:52;;;;;;;0.93;0.82;;;;;;;;;;4893666;29;20304;-72
2022/07/03 17:59:19;;;;;;;1.45;0.60;;;;;;;;;;4892368;29;20136;-66
2022/07/03 18:01:46;;;;;;;1.40;0.60;;;;;;;;;;4895066;29;20067;-66
2022/07/03 18:04:13;;;;;;;1.52;0.80;;;;;;;;;;4891706;29;20453;-67
2022/07/03 18:06:41;;;;;;;0.63;0.52;;;;;;;;;;4886842;29;20056;-69
2022/07/03 18:09:16;;;;;;;4.85;0.90;;;;;;;;;;4892699;29;20580;-67
2022/07/03 18:11:51;;;;;;;2.08;0.90;;;;;;;;;;4894052;29;20132;-67
2022/07/03 18:14:40;;;;;;;2.28;0.73;;;;;;;;;;4895832;29;20564;-67
2022/07/03 18:17:08;;;;;;;1.65;0.70;;;;;;;;;;4894611;29;20048;-65
2022/07/03 18:19:35;;;;;;;1.92;0.70;;;;;;;;;;4897078;29;20053;-66
2022/07/03 18:22:03;;;;;;;3.85;1.27;;;;;;;;;;4897315;29;20052;-67
2022/07/03 18:24:37;;;;;;;0.88;0.55;;;;;;;;;;4897594;29;20107;-66
2022/07/03 18:27:06;;;;;;;2.00;0.70;;;;;;;;;;4897514;29;20052;-67
2022/07/03 18:29:33;;;;;;;1.70;0.70;;;;;;;;;;4895855;29;20056;-66
2022/07/03 18:32:00;;;;;;;2.58;0.75;;;;;;;;;;4879590;29;20053;-68
2022/07/03 18:34:27;;;;;;;1.77;0.98;;;;;;;;;;4896083;29;20067;-67
2022/07/03 18:36:54;;;;;;;3.78;1.15;;;;;;;;;;4896034;29;20058;-65
2022/07/03 18:39:21;;;;;;;2.42;1.30;;;;;;;;;;4897967;29;20084;-66
2022/07/03 18:41:49;;;;;;;2.42;1.20;;;;;;;;;;4896425;29;20068;-67
2022/07/03 18:44:16;;;;;;;1.27;0.70;;;;;;;;;;4880262;29;20082;-66
2022/07/03 18:46:43;;;;;;;0.77;0.65;;;;;;;;;;4880961;29;20048;-66
2022/07/03 18:49:10;;;;;;;3.70;1.30;;;;;;;;;;4896759;29;20140;-67
2022/07/03 18:52:01;;;;;;;1.45;0.70;;;;;;;;;;4897213;29;20051;-66
2022/07/03 18:54:30;;;;;;;1.25;0.90;;;;;;;;;;4897129;29;20061;-66
2022/07/03 18:57:03;;;;;;;2.08;1.00;;;;;;;;;;4899454;29;20057;-66
2022/07/03 18:59:37;;;;;;;3.08;1.20;;;;;;;;;;4896716;29;20511;-66
2022/07/03 19:02:05;;;;;;;4.93;2.10;;;;;;;;;;4896931;29;20057;-66
2022/07/03 19:04:46;;;;;;;3.28;1.20;;;;;;;;;;4910850;29;20081;-67
2022/07/03 19:07:19;;;;;;;2.80;1.27;;;;;;;;;;4896770;29;20070;-65
2022/07/03 19:09:51;;;;;;;3.95;1.25;;;;;;;;;;4910317;29;20057;-65
2022/07/03 19:12:20;;;;;;;1.63;0.68;;;;;;;;;;4896633;29;20066;-66